Time;durP1;ratioP1;P1;durP2;ratioP2;P2;SDS_P1;SDS_P2;PMS_P1;PMS_P2;Temp;Humidity;BMP_temperature;BMP_pressure;BME280_temperature;BME280_humidity;BME280_pressure;Samples;Min_cycle;Max_cycle;Signal;HPM_P1;HPM_P2
2023/06/27 00:01:11;;;;;;;31.40;28.20;;;18.90;99.90;;;;;;4993911;28;20555;-79
2023/06/27 00:03:39;;;;;;;28.20;25.33;;;18.90;99.90;;;;;;4988746;28;20415;-81
2023/06/27 00:06:06;;;;;;;26.50;24.17;;;19.10;99.90;;;;;;4986832;28;20460;-83
2023/06/27 00:08:34;;;;;;;28.00;25.60;;;19.00;99.90;;;;;;4988405;28;20420;-84
2023/06/27 00:11:03;;;;;;;25.73;23.20;;;18.80;99.90;;;;;;4988991;28;20436;-84
2023/06/27 00:13:40;;;;;;;25.30;22.90;;;18.80;99.90;;;;;;4986520;28;20496;-82
2023/06/27 00:16:13;;;;;;;20.80;19.07;;;18.70;99.90;;;;;;4992848;28;20404;-79
2023/06/27 00:18:52;;;;;;;21.83;20.00;;;18.60;99.90;;;;;;4986007;28;20499;-83
2023/06/27 00:21:28;;;;;;;22.83;20.53;;;19.00;99.90;;;;;;4993289;28;20484;-82
2023/06/27 00:23:57;;;;;;;19.33;17.50;;;18.10;99.90;;;;;;4989537;28;20430;-81
2023/06/27 00:26:24;;;;;;;20.93;18.83;;;18.60;99.90;;;;;;4985471;28;20475;-82
2023/06/27 00:28:56;;;;;;;19.83;18.17;;;18.40;99.90;;;;;;4992467;28;20426;-83
2023/06/27 00:31:23;;;;;;;19.67;18.07;;;18.30;99.90;;;;;;4990781;28;20444;-80
2023/06/27 00:33:53;;;;;;;19.93;18.23;;;18.30;99.90;;;;;;4978836;28;20438;-80
2023/06/27 00:36:21;;;;;;;21.23;19.10;;;18.30;99.90;;;;;;4989953;28;20466;-83
2023/06/27 00:38:56;;;;;;;25.83;19.07;;;18.30;99.90;;;;;;4983173;28;20487;-83
2023/06/27 00:41:29;;;;;;;18.73;17.13;;;18.40;99.90;;;;;;4987940;28;20548;-85
2023/06/27 00:44:05;;;;;;;20.40;18.00;;;18.40;99.90;;;;;;4983560;28;20543;-81
2023/06/27 00:46:38;;;;;;;20.40;18.57;;;18.50;99.90;;;;;;4982156;28;20559;-82
2023/06/27 00:49:10;;;;;;;19.60;17.57;;;18.30;99.90;;;;;;4988705;28;20474;-85
2023/06/27 00:51:41;;;;;;;18.47;16.87;;;18.30;99.90;;;;;;4990290;28;20447;-83
2023/06/27 00:54:08;;;;;;;18.50;16.90;;;18.30;99.90;;;;;;4980779;28;20806;-89
2023/06/27 00:56:36;;;;;;;18.30;16.57;;;18.20;99.90;;;;;;4988633;28;20956;-83
2023/06/27 00:59:04;;;;;;;19.43;17.53;;;18.20;99.90;;;;;;4988772;28;20551;-85
2023/06/27 01:01:38;;;;;;;17.87;16.13;;;18.30;99.90;;;;;;4993123;28;20641;-84
2023/06/27 01:04:11;;;;;;;17.40;15.90;;;17.90;99.90;;;;;;4987077;28;20439;-85
2023/06/27 01:07:16;;;;;;;17.10;15.67;;;17.90;99.90;;;;;;4992701;28;20418;-83
2023/06/27 01:10:00;;;;;;;18.37;16.10;;;17.90;99.90;;;;;;4989627;28;20448;-85
2023/06/27 01:13:04;;;;;;;16.73;15.40;;;17.90;99.90;;;;;;4982028;28;20430;-88
2023/06/27 01:15:36;;;;;;;17.40;15.67;;;17.90;99.90;;;;;;4988259;28;20493;-83
2023/06/27 01:18:05;;;;;;;17.50;15.60;;;17.80;99.90;;;;;;4991426;28;20533;-84
2023/06/27 01:20:33;;;;;;;19.60;17.60;;;17.90;99.90;;;;;;4995972;28;20426;-84
2023/06/27 01:23:17;;;;;;;16.60;15.20;;;18.60;99.90;;;;;;4982708;28;20455;-86
2023/06/27 01:25:44;;;;;;;17.13;15.77;;;17.50;99.90;;;;;;4997432;28;20522;-84
2023/06/27 01:28:19;;;;;;;17.53;16.07;;;17.90;99.90;;;;;;4982853;28;20422;-84
2023/06/27 01:30:50;;;;;;;17.93;16.53;;;17.50;99.90;;;;;;4986942;28;20474;-83
2023/06/27 01:33:32;;;;;;;19.07;17.17;;;17.50;99.90;;;;;;4984088;28;20523;-88
2023/06/27 01:36:09;;;;;;;19.17;17.13;;;17.40;99.90;;;;;;4987442;28;20732;-82
2023/06/27 01:39:06;;;;;;;20.67;18.87;;;17.40;99.90;;;;;;4994578;28;20499;-83
2023/06/27 01:41:45;;;;;;;19.13;17.33;;;17.40;99.90;;;;;;4977676;28;20433;-85
2023/06/27 01:44:15;;;;;;;20.40;18.50;;;17.40;99.90;;;;;;4991880;28;20448;-85
2023/06/27 01:46:48;;;;;;;20.80;18.90;;;17.30;99.90;;;;;;4993764;28;20553;-85
2023/06/27 01:49:30;;;;;;;;;;;;;;;;;;;;;
2023/06/27 01:52:04;;;;;;;23.57;21.33;;;17.30;99.90;;;;;;4987808;28;20464;-83
2023/06/27 01:54:40;;;;;;;23.87;21.57;;;17.30;99.90;;;;;;4989354;28;20551;-87
2023/06/27 01:57:10;;;;;;;23.77;21.77;;;17.40;99.90;;;;;;4989655;28;20491;-84
2023/06/27 01:59:42;;;;;;;25.93;23.63;;;17.40;99.90;;;;;;4992578;28;20467;-86
2023/06/27 02:02:09;;;;;;;27.47;24.97;;;17.80;99.90;;;;;;4990339;28;20433;-88
2023/06/27 02:04:38;;;;;;;31.00;28.10;;;17.50;99.90;;;;;;4985856;28;20923;-84
2023/06/27 02:07:07;;;;;;;27.20;24.70;;;17.80;99.90;;;;;;4982435;28;20977;-86
2023/06/27 02:09:47;;;;;;;28.63;25.60;;;17.60;99.90;;;;;;4993578;28;20429;-87
2023/06/27 02:12:17;;;;;;;24.97;22.40;;;17.60;99.90;;;;;;4988045;28;20519;-84
2023/06/27 02:14:51;;;;;;;27.53;23.73;;;17.60;99.90;;;;;;4988929;28;20427;-86
2023/06/27 02:17:23;;;;;;;25.10;22.60;;;17.60;99.90;;;;;;4987124;28;20459;-86
2023/06/27 02:19:53;;;;;;;25.67;23.27;;;17.70;99.90;;;;;;4981104;28;20609;-85
2023/06/27 02:22:26;;;;;;;26.87;24.30;;;17.60;99.90;;;;;;4993489;28;20805;-83
2023/06/27 02:24:56;;;;;;;25.27;22.90;;;17.70;99.90;;;;;;4983785;28;20428;-85
2023/06/27 02:27:24;;;;;;;26.80;24.13;;;17.70;99.90;;;;;;4973101;28;20855;-85
2023/06/27 02:30:22;;;;;;;27.03;24.53;;;17.70;99.90;;;;;;4983786;28;20441;-85
2023/06/27 02:32:54;;;;;;;26.40;23.63;;;17.70;99.90;;;;;;4997903;28;20443;-85
2023/06/27 02:35:32;;;;;;;30.20;24.67;;;17.70;99.90;;;;;;4967953;28;20737;-87
2023/06/27 02:38:05;;;;;;;26.13;23.50;;;17.80;99.90;;;;;;4980551;28;20488;-86
2023/06/27 02:40:54;;;;;;;27.17;24.43;;;17.80;99.90;;;;;;4990004;28;20470;-87
2023/06/27 02:43:35;;;;;;;27.50;22.67;;;17.80;99.90;;;;;;4992364;28;20498;-88
2023/06/27 02:46:05;;;;;;;24.67;22.43;;;17.80;99.90;;;;;;4990049;28;20474;-88
2023/06/27 02:48:38;;;;;;;24.70;22.40;;;17.80;99.90;;;;;;4976768;28;20454;-88
2023/06/27 02:51:15;;;;;;;24.93;22.60;;;17.70;99.90;;;;;;4988419;28;20456;-87
2023/06/27 02:53:53;;;;;;;26.80;23.70;;;17.90;99.90;;;;;;4988443;28;20440;-88
2023/06/27 02:56:32;;;;;;;25.43;22.93;;;18.00;99.90;;;;;;4980175;28;20468;-88
2023/06/27 02:59:16;;;;;;;;;;;;;;;;;;;;;
2023/06/27 03:02:05;;;;;;;26.90;24.03;;;18.20;99.90;;;;;;4989992;28;20447;-88
2023/06/27 03:04:51;;;;;;;;;;;;;;;;;;;;;
2023/06/27 03:07:51;;;;;;;24.10;21.67;;;17.90;99.90;;;;;;4976832;28;20597;-85
2023/06/27 03:10:22;;;;;;;29.73;25.90;;;17.80;99.90;;;;;;4983380;28;20464;-87
2023/06/27 03:12:49;;;;;;;30.07;26.53;;;17.80;99.90;;;;;;4985600;28;20519;-86
2023/06/27 03:15:24;;;;;;;27.37;24.70;;;17.70;99.90;;;;;;4996090;28;20459;-85
2023/06/27 03:17:59;;;;;;;27.90;25.20;;;17.70;99.90;;;;;;4986015;28;20432;-88
2023/06/27 03:20:27;;;;;;;24.13;21.57;;;17.60;99.90;;;;;;4981470;28;20510;-83
2023/06/27 03:22:54;;;;;;;25.10;22.30;;;17.60;99.90;;;;;;4979735;28;20448;-86
2023/06/27 03:25:26;;;;;;;16.17;14.70;;;17.50;99.90;;;;;;4984238;28;20441;-87
2023/06/27 03:27:56;;;;;;;17.43;15.80;;;17.30;99.90;;;;;;4982757;28;20452;-86
2023/06/27 03:30:43;;;;;;;18.93;17.07;;;17.10;99.90;;;;;;4977763;28;20456;-83
2023/06/27 03:33:10;;;;;;;17.63;15.93;;;17.00;99.90;;;;;;4977426;28;20517;-83
2023/06/27 03:35:38;;;;;;;14.90;13.60;;;17.10;99.90;;;;;;4982298;28;20437;-83
2023/06/27 03:38:08;;;;;;;16.33;13.87;;;17.00;99.90;;;;;;4976906;28;20492;-87
2023/06/27 03:40:37;;;;;;;14.63;13.13;;;16.90;99.90;;;;;;4984995;28;20455;-88
2023/06/27 03:43:04;;;;;;;16.23;14.67;;;16.80;99.90;;;;;;4992746;28;20474;-82
2023/06/27 03:45:41;;;;;;;17.30;13.83;;;16.50;99.90;;;;;;4985992;28;20487;-85
2023/06/27 03:48:11;;;;;;;18.60;15.47;;;16.80;99.90;;;;;;4985497;28;20425;-88
2023/06/27 03:50:40;;;;;;;15.83;14.37;;;16.60;99.90;;;;;;4991617;28;20414;-80
2023/06/27 03:53:08;;;;;;;19.53;17.83;;;16.80;99.90;;;;;;4991628;28;20434;-83
2023/06/27 03:55:40;;;;;;;19.10;17.43;;;16.90;99.90;;;;;;4988917;28;20526;-81
2023/06/27 03:58:08;;;;;;;22.53;20.30;;;17.00;99.90;;;;;;4993673;28;20482;-84
2023/06/27 04:00:36;;;;;;;19.27;17.40;;;17.00;99.90;;;;;;4990455;28;20447;-83
2023/06/27 04:03:06;;;;;;;19.10;17.30;;;17.10;99.90;;;;;;4973862;28;20453;-83
2023/06/27 04:05:35;;;;;;;19.80;18.00;;;17.20;99.90;;;;;;4984612;28;20471;-85
2023/06/27 04:08:03;;;;;;;17.53;15.67;;;17.20;99.90;;;;;;4983210;28;20455;-79
2023/06/27 04:10:32;;;;;;;20.57;16.23;;;17.20;99.90;;;;;;4994825;28;20468;-82
2023/06/27 04:13:00;;;;;;;16.43;15.03;;;17.20;99.90;;;;;;4988583;28;20439;-83
2023/06/27 04:15:28;;;;;;;15.80;14.30;;;17.20;99.90;;;;;;4985000;28;20520;-86
2023/06/27 04:17:56;;;;;;;15.80;14.47;;;17.20;99.90;;;;;;4996009;28;20653;-83
2023/06/27 04:20:31;;;;;;;16.07;14.60;;;17.00;99.90;;;;;;4975739;28;20426;-80
2023/06/27 04:22:59;;;;;;;15.00;13.27;;;17.00;99.90;;;;;;4985020;28;20457;-83
2023/06/27 04:25:34;;;;;;;14.20;12.90;;;17.20;99.90;;;;;;4972499;28;20456;-81
2023/06/27 04:28:02;;;;;;;15.13;13.77;;;17.10;99.90;;;;;;4984771;28;20819;-81
2023/06/27 04:30:29;;;;;;;14.27;12.87;;;17.10;99.90;;;;;;4985288;28;20450;-84
2023/06/27 04:33:03;;;;;;;14.47;12.53;;;17.10;99.90;;;;;;4988634;28;20507;-83
2023/06/27 04:35:33;;;;;;;14.30;13.10;;;17.30;99.90;;;;;;4981978;28;20450;-82
2023/06/27 04:38:08;;;;;;;13.90;12.30;;;17.40;99.90;;;;;;4982137;28;20441;-86
2023/06/27 04:40:38;;;;;;;18.07;11.97;;;17.80;99.90;;;;;;4993695;28;20441;-80
2023/06/27 04:43:06;;;;;;;13.93;12.70;;;17.80;99.90;;;;;;4991534;28;20430;-87
2023/06/27 04:45:34;;;;;;;13.60;12.30;;;17.60;99.90;;;;;;4998087;28;20450;-89
2023/06/27 04:48:02;;;;;;;14.50;11.90;;;17.90;99.90;;;;;;4981969;28;20464;-87
2023/06/27 04:50:29;;;;;;;13.53;11.77;;;17.70;99.90;;;;;;4981665;28;20597;-84
2023/06/27 04:52:57;;;;;;;14.90;12.20;;;17.70;99.90;;;;;;4979620;28;20511;-85
2023/06/27 04:55:25;;;;;;;16.83;11.40;;;17.70;99.90;;;;;;4976029;28;20451;-85
2023/06/27 04:57:53;;;;;;;12.90;11.70;;;17.80;99.90;;;;;;4993267;28;20459;-85
2023/06/27 05:00:22;;;;;;;17.30;13.03;;;17.90;99.90;;;;;;4994842;28;20495;-87
2023/06/27 05:02:52;;;;;;;18.03;13.20;;;17.50;99.90;;;;;;4986367;28;20471;-86
2023/06/27 05:05:20;;;;;;;12.80;11.63;;;17.70;99.90;;;;;;4979249;28;20753;-86
2023/06/27 05:07:47;;;;;;;14.90;12.97;;;17.70;99.90;;;;;;4978895;28;20473;-87
2023/06/27 05:10:16;;;;;;;15.03;12.17;;;17.60;99.90;;;;;;4980703;28;20507;-88
2023/06/27 05:12:47;;;;;;;14.60;13.30;;;17.70;99.90;;;;;;4990286;28;20515;-87
2023/06/27 05:15:22;;;;;;;14.83;12.50;;;17.80;99.90;;;;;;4988186;28;20413;-82
2023/06/27 05:17:53;;;;;;;12.23;11.03;;;17.90;99.90;;;;;;4988397;28;20438;-86
2023/06/27 05:20:20;;;;;;;11.53;10.33;;;18.00;99.90;;;;;;4996508;28;20743;-84
2023/06/27 05:22:49;;;;;;;9.90;9.00;;;18.00;99.90;;;;;;4994914;28;20435;-86
2023/06/27 05:25:16;;;;;;;11.83;8.67;;;18.20;99.90;;;;;;4986381;28;20459;-85
2023/06/27 05:27:44;;;;;;;10.93;9.90;;;18.40;99.90;;;;;;4986453;28;20448;-84
2023/06/27 05:30:58;;;;;;;10.73;9.70;;;18.60;99.90;;;;;;4969142;28;20414;-83
2023/06/27 05:33:28;;;;;;;10.00;9.00;;;18.90;99.90;;;;;;4982416;28;20471;-81
2023/06/27 05:35:55;;;;;;;8.40;7.70;;;19.20;99.90;;;;;;4978449;28;20448;-86
2023/06/27 05:38:29;;;;;;;9.70;8.70;;;19.20;99.90;;;;;;4990230;28;20688;-87
2023/06/27 05:41:02;;;;;;;9.63;8.87;;;19.00;99.90;;;;;;4989019;28;20708;-85
2023/06/27 05:43:29;;;;;;;10.33;8.90;;;18.90;99.90;;;;;;4988353;28;20483;-85
2023/06/27 05:45:56;;;;;;;9.80;8.77;;;18.80;99.90;;;;;;4982968;28;20473;-83
2023/06/27 05:48:23;;;;;;;8.40;7.70;;;18.50;99.90;;;;;;4981417;28;20448;-87
2023/06/27 05:50:54;;;;;;;9.43;8.53;;;18.90;99.90;;;;;;4992762;28;20653;-83
2023/06/27 05:53:23;;;;;;;13.70;7.97;;;18.90;99.90;;;;;;4979194;28;20638;-84
2023/06/27 05:55:52;;;;;;;10.30;9.27;;;19.00;99.90;;;;;;4985678;28;20466;-85
2023/06/27 05:58:24;;;;;;;8.40;7.43;;;19.30;99.90;;;;;;4991477;28;20418;-86
2023/06/27 06:00:54;;;;;;;7.50;6.70;;;18.70;99.90;;;;;;4980265;28;20436;-87
2023/06/27 06:03:24;;;;;;;11.33;7.00;;;18.70;99.90;;;;;;4980339;28;20430;-82
2023/06/27 06:05:52;;;;;;;8.10;7.30;;;18.90;99.90;;;;;;4979869;28;20775;-84
2023/06/27 06:08:20;;;;;;;8.43;7.60;;;19.00;99.90;;;;;;4985880;28;20451;-85
2023/06/27 06:10:50;;;;;;;9.20;6.40;;;19.20;99.90;;;;;;4990437;28;20878;-83
2023/06/27 06:13:19;;;;;;;9.10;6.30;;;18.50;99.90;;;;;;4979964;28;20433;-90
2023/06/27 06:15:46;;;;;;;12.03;6.07;;;18.70;99.90;;;;;;4996097;28;20619;-83
2023/06/27 06:18:16;;;;;;;6.30;5.90;;;18.70;99.90;;;;;;4988958;28;20447;-88
2023/06/27 06:21:07;;;;;;;5.83;5.30;;;18.90;99.90;;;;;;4994079;28;20526;-84
2023/06/27 06:23:46;;;;;;;9.70;6.67;;;18.80;99.90;;;;;;4983535;28;20519;-82
2023/06/27 06:26:19;;;;;;;9.23;5.40;;;19.50;99.90;;;;;;4985872;28;20605;-83
2023/06/27 06:28:54;;;;;;;7.50;4.63;;;19.10;99.90;;;;;;4983529;28;20456;-85
2023/06/27 06:31:23;;;;;;;7.17;4.53;;;19.10;99.90;;;;;;4987549;28;20445;-85
2023/06/27 06:33:51;;;;;;;12.60;4.83;;;19.50;99.90;;;;;;4984098;28;20452;-83
2023/06/27 06:36:31;;;;;;;10.83;4.90;;;20.10;99.90;;;;;;4979534;28;20541;-84
2023/06/27 06:39:06;;;;;;;5.23;4.73;;;20.70;99.90;;;;;;4991568;28;20545;-84
2023/06/27 06:41:38;;;;;;;10.40;4.87;;;21.00;99.90;;;;;;4987843;28;20452;-84
2023/06/27 06:44:17;;;;;;;6.43;4.73;;;20.20;99.90;;;;;;4986781;28;20447;-84
2023/06/27 06:46:44;;;;;;;6.73;4.80;;;20.00;99.90;;;;;;4978079;28;20422;-82
2023/06/27 06:49:18;;;;;;;11.03;4.20;;;19.70;99.90;;;;;;4979178;28;20441;-85
2023/06/27 06:51:55;;;;;;;5.70;4.27;;;19.70;99.90;;;;;;4983979;28;20778;-82
2023/06/27 06:54:24;;;;;;;9.40;4.27;;;20.00;99.90;;;;;;4989622;28;20441;-87
2023/06/27 06:57:04;;;;;;;4.93;4.40;;;20.40;99.90;;;;;;4987760;28;20503;-86
2023/06/27 06:59:32;;;;;;;4.67;4.27;;;21.30;99.90;;;;;;4978222;28;20813;-84
2023/06/27 07:02:05;;;;;;;8.67;4.10;;;21.90;99.90;;;;;;4981690;28;20419;-82
2023/06/27 07:04:32;;;;;;;15.20;4.67;;;22.60;99.90;;;;;;4988126;28;20460;-84
2023/06/27 07:06:59;;;;;;;7.43;4.50;;;22.40;99.90;;;;;;4985220;28;20414;-86
2023/06/27 07:09:33;;;;;;;12.33;4.10;;;22.60;99.90;;;;;;4994410;28;20465;-85
2023/06/27 07:12:03;;;;;;;6.07;4.50;;;23.30;99.90;;;;;;4986186;28;20483;-87
2023/06/27 07:14:38;;;;;;;4.70;4.37;;;23.80;99.90;;;;;;4987274;28;20480;-84
2023/06/27 07:17:05;;;;;;;5.00;4.00;;;24.40;99.90;;;;;;4995787;28;20441;-85
2023/06/27 07:19:33;;;;;;;6.87;4.03;;;23.80;99.90;;;;;;4983879;28;20578;-81
2023/06/27 07:22:02;;;;;;;9.77;4.77;;;24.70;99.90;;;;;;4994272;28;20445;-85
2023/06/27 07:24:29;;;;;;;5.03;4.53;;;24.70;99.90;;;;;;4990908;28;20419;-86
2023/06/27 07:27:00;;;;;;;5.43;4.10;;;24.90;99.90;;;;;;4992919;28;20726;-85
2023/06/27 07:29:30;;;;;;;11.53;4.67;;;25.10;99.90;;;;;;4997740;28;20615;-83
2023/06/27 07:32:01;;;;;;;10.90;4.30;;;25.80;99.90;;;;;;4985776;28;20477;-84
2023/06/27 07:34:30;;;;;;;6.60;4.43;;;26.30;99.90;;;;;;4985384;28;20446;-84
2023/06/27 07:36:59;;;;;;;8.50;5.00;;;27.40;99.90;;;;;;5001587;28;20614;-87
2023/06/27 07:39:33;;;;;;;4.53;4.13;;;27.30;99.90;;;;;;4992689;28;20520;-83
2023/06/27 07:42:05;;;;;;;4.93;4.00;;;27.10;99.90;;;;;;4988217;28;20450;-84
2023/06/27 07:44:36;;;;;;;5.30;3.77;;;27.10;99.90;;;;;;4998100;28;20441;-87
2023/06/27 07:47:15;;;;;;;5.13;4.50;;;26.40;99.90;;;;;;4987750;28;20486;-87
2023/06/27 07:49:45;;;;;;;4.90;4.50;;;27.00;99.90;;;;;;4989035;28;20456;-86
2023/06/27 07:52:13;;;;;;;4.80;4.20;;;28.40;99.90;;;;;;4993409;28;20429;-84
2023/06/27 07:54:40;;;;;;;4.93;4.43;;;27.60;99.90;;;;;;4992134;28;20521;-84
2023/06/27 07:57:07;;;;;;;4.63;4.27;;;28.10;99.90;;;;;;4987304;28;20631;-86
2023/06/27 07:59:36;;;;;;;4.87;4.50;;;28.20;99.90;;;;;;4986472;28;20486;-84
2023/06/27 08:02:04;;;;;;;3.70;3.40;;;26.70;99.90;;;;;;4984726;28;20473;-85
2023/06/27 08:04:36;;;;;;;4.73;4.13;;;25.10;99.90;;;;;;4986352;28;20510;-84
2023/06/27 08:07:06;;;;;;;4.30;3.90;;;25.20;99.90;;;;;;4988462;28;20503;-86
2023/06/27 08:09:46;;;;;;;4.47;4.17;;;26.90;99.90;;;;;;4972213;28;20781;-85
2023/06/27 08:12:14;;;;;;;4.47;4.07;;;27.30;99.90;;;;;;4979588;28;20450;-83
2023/06/27 08:14:45;;;;;;;4.20;3.87;;;26.00;99.90;;;;;;4990164;28;20461;-87
2023/06/27 08:17:12;;;;;;;4.40;3.90;;;25.70;99.90;;;;;;4987463;28;20419;-84
2023/06/27 08:19:43;;;;;;;6.63;4.40;;;26.10;99.90;;;;;;4989641;28;20484;-83
2023/06/27 08:22:13;;;;;;;5.30;4.63;;;26.50;99.90;;;;;;4982079;28;20459;-86
2023/06/27 08:24:43;;;;;;;7.17;3.87;;;27.50;99.90;;;;;;4980014;28;20502;-83
2023/06/27 08:27:10;;;;;;;8.80;4.60;;;27.70;99.90;;;;;;4991022;28;20426;-88
2023/06/27 08:29:40;;;;;;;4.40;4.00;;;27.50;99.90;;;;;;4991514;28;20830;-85
2023/06/27 08:32:09;;;;;;;4.63;4.23;;;27.60;99.90;;;;;;4988732;28;20751;-84
2023/06/27 08:34:38;;;;;;;4.77;4.37;;;27.40;99.90;;;;;;4986445;28;20490;-82
2023/06/27 08:37:06;;;;;;;4.70;4.23;;;26.90;99.90;;;;;;5004411;28;20440;-87
2023/06/27 08:39:52;;;;;;;9.80;5.20;;;25.60;99.90;;;;;;5005624;28;20624;-88
2023/06/27 08:42:19;;;;;;;5.40;4.90;;;27.00;99.90;;;;;;4994922;28;20433;-83
2023/06/27 08:44:48;;;;;;;6.73;4.83;;;28.10;99.90;;;;;;4998815;28;20447;-84
2023/06/27 08:47:19;;;;;;;4.80;4.27;;;29.00;99.90;;;;;;4994613;28;20469;-85
2023/06/27 08:49:51;;;;;;;4.10;3.80;;;27.20;99.90;;;;;;4990517;28;20419;-85
2023/06/27 08:52:22;;;;;;;10.47;4.00;;;27.20;99.90;;;;;;4985907;28;20427;-87
2023/06/27 08:54:53;;;;;;;7.30;4.77;;;28.30;99.90;;;;;;4982719;28;20436;-87
2023/06/27 08:57:35;;;;;;;5.33;4.83;;;29.80;97.00;;;;;;4984331;28;20451;-86
2023/06/27 09:00:26;;;;;;;4.93;4.53;;;30.70;93.10;;;;;;4983747;28;20466;-86
2023/06/27 09:02:55;;;;;;;6.87;4.10;;;29.60;94.30;;;;;;4989708;28;20449;-83
2023/06/27 09:05:23;;;;;;;4.67;4.27;;;28.00;97.00;;;;;;4986788;28;20761;-86
2023/06/27 09:07:53;;;;;;;6.50;4.57;;;27.10;97.80;;;;;;4976280;28;20472;-86
2023/06/27 09:10:30;;;;;;;5.93;4.30;;;27.90;96.20;;;;;;4998313;28;20522;-81
2023/06/27 09:13:04;;;;;;;4.97;4.30;;;26.10;98.20;;;;;;4980112;28;20427;-84
2023/06/27 09:15:35;;;;;;;4.43;4.13;;;25.40;99.90;;;;;;4992885;28;20473;-86
2023/06/27 09:18:09;;;;;;;4.67;4.37;;;27.10;98.80;;;;;;4979230;28;20429;-81
2023/06/27 09:20:38;;;;;;;4.33;3.93;;;29.40;95.20;;;;;;4980159;28;20630;-84
2023/06/27 09:23:14;;;;;;;4.83;4.43;;;29.60;93.60;;;;;;4982066;28;20422;-84
2023/06/27 09:25:42;;;;;;;4.70;4.40;;;29.20;93.20;;;;;;4984366;28;20503;-84
2023/06/27 09:28:20;;;;;;;6.03;4.17;;;30.20;93.20;;;;;;4986993;28;20762;-87
2023/06/27 09:30:55;;;;;;;5.17;4.60;;;29.80;91.50;;;;;;4982625;28;20439;-82
2023/06/27 09:33:23;;;;;;;4.50;4.10;;;27.90;92.90;;;;;;4975699;28;20448;-86
2023/06/27 09:35:53;;;;;;;4.57;4.23;;;26.20;98.20;;;;;;4987037;28;20431;-83
2023/06/27 09:38:33;;;;;;;5.47;4.30;;;24.70;99.90;;;;;;4984015;28;20411;-85
2023/06/27 09:41:04;;;;;;;4.53;4.13;;;23.40;99.90;;;;;;4980804;28;20499;-83
2023/06/27 09:43:39;;;;;;;5.90;4.40;;;22.10;99.90;;;;;;4987081;28;20415;-87
2023/06/27 09:46:08;;;;;;;5.57;4.67;;;21.30;99.90;;;;;;4988583;28;20840;-85
2023/06/27 09:48:38;;;;;;;4.97;4.57;;;20.90;99.90;;;;;;4983018;28;20479;-83
2023/06/27 09:51:08;;;;;;;5.13;4.50;;;21.10;99.90;;;;;;4991915;28;20814;-85
2023/06/27 09:53:35;;;;;;;4.80;4.40;;;21.80;99.90;;;;;;4984272;28;20445;-87
2023/06/27 09:56:03;;;;;;;4.67;4.20;;;22.50;99.90;;;;;;4984791;28;20422;-88
2023/06/27 09:58:34;;;;;;;6.97;4.00;;;23.40;99.90;;;;;;4984134;28;20435;-84
2023/06/27 10:01:05;;;;;;;6.30;4.33;;;23.60;99.90;;;;;;4982801;28;20453;-83
2023/06/27 10:03:34;;;;;;;4.33;3.90;;;23.00;99.90;;;;;;4982072;28;20465;-84
2023/06/27 10:06:02;;;;;;;4.73;4.33;;;21.10;99.90;;;;;;4981471;28;20442;-87
2023/06/27 10:08:40;;;;;;;6.50;6.10;;;19.90;99.90;;;;;;4979556;28;20514;-86
2023/06/27 10:11:07;;;;;;;8.47;7.90;;;18.80;99.90;;;;;;4987376;28;20441;-86
2023/06/27 10:13:39;;;;;;;9.13;8.73;;;17.40;99.90;;;;;;4986978;28;20423;-82
2023/06/27 10:16:11;;;;;;;9.33;8.63;;;16.80;99.90;;;;;;4984763;28;20443;-85
2023/06/27 10:18:38;;;;;;;9.53;8.80;;;16.70;99.90;;;;;;4986052;28;20430;-80
2023/06/27 10:21:06;;;;;;;9.67;7.93;;;16.70;99.90;;;;;;4986368;28;20511;-82
2023/06/27 10:23:33;;;;;;;8.97;8.10;;;17.20;99.90;;;;;;4979811;28;20899;-81
2023/06/27 10:26:01;;;;;;;8.33;7.53;;;17.70;99.90;;;;;;4990691;28;20418;-81
2023/06/27 10:28:32;;;;;;;9.30;7.43;;;18.10;99.90;;;;;;4985734;28;20415;-80
2023/06/27 10:31:02;;;;;;;7.63;7.03;;;18.10;99.90;;;;;;4990313;28;20433;-82
2023/06/27 10:33:31;;;;;;;10.70;7.20;;;18.30;99.90;;;;;;4976869;28;20532;-85
2023/06/27 10:36:05;;;;;;;9.67;7.10;;;18.60;99.90;;;;;;4989292;28;20682;-82
2023/06/27 10:38:36;;;;;;;9.33;7.03;;;18.70;99.90;;;;;;4987295;28;20440;-84
2023/06/27 10:41:09;;;;;;;6.13;5.63;;;19.10;99.90;;;;;;4981275;28;20458;-86
2023/06/27 10:43:52;;;;;;;6.17;5.70;;;18.80;99.90;;;;;;4980361;28;20457;-86
2023/06/27 10:46:46;;;;;;;7.00;5.43;;;18.10;99.90;;;;;;4982936;28;20461;-86
2023/06/27 10:49:14;;;;;;;5.67;5.37;;;17.40;99.90;;;;;;4979609;28;20763;-84
2023/06/27 10:51:44;;;;;;;5.40;5.00;;;17.10;99.90;;;;;;4992230;28;20725;-82
2023/06/27 10:54:15;;;;;;;6.17;5.77;;;17.30;99.90;;;;;;4986093;28;20443;-81
2023/06/27 10:56:46;;;;;;;6.23;5.80;;;17.50;99.90;;;;;;4981806;28;20426;-83
2023/06/27 10:59:19;;;;;;;5.80;5.40;;;18.20;99.90;;;;;;4984931;28;20436;-82
2023/06/27 11:02:13;;;;;;;5.93;5.60;;;18.70;99.90;;;;;;4998956;28;20458;-83
2023/06/27 11:04:43;;;;;;;5.67;5.27;;;19.00;99.90;;;;;;5003882;28;20476;-83
2023/06/27 11:07:17;;;;;;;6.23;5.63;;;19.20;99.90;;;;;;4994356;28;20478;-82
2023/06/27 11:09:55;;;;;;;6.30;5.80;;;19.40;99.90;;;;;;4990627;28;20524;-85
2023/06/27 11:12:22;;;;;;;7.70;7.10;;;19.70;99.90;;;;;;4995589;28;20424;-82
2023/06/27 11:14:53;;;;;;;7.37;6.87;;;20.00;99.90;;;;;;5000057;28;20439;-84
2023/06/27 11:17:23;;;;;;;7.60;5.57;;;20.10;99.90;;;;;;4988546;28;20631;-82
2023/06/27 11:19:58;;;;;;;5.30;4.80;;;20.30;99.90;;;;;;4982181;28;20578;-85
2023/06/27 11:22:25;;;;;;;4.40;4.10;;;20.40;99.90;;;;;;4983655;28;20532;-83
2023/06/27 11:24:56;;;;;;;5.43;4.40;;;21.00;99.90;;;;;;4988378;28;20683;-84
2023/06/27 11:27:32;;;;;;;5.00;3.90;;;21.00;99.90;;;;;;4986392;28;20507;-86
2023/06/27 11:30:07;;;;;;;9.20;5.10;;;21.10;99.90;;;;;;4984701;28;20445;-84
2023/06/27 11:32:37;;;;;;;7.33;4.33;;;21.30;99.90;;;;;;4988708;28;20529;-84
2023/06/27 11:35:18;;;;;;;4.27;3.90;;;21.50;99.90;;;;;;4979509;28;20430;-87
2023/06/27 11:37:54;;;;;;;3.53;3.33;;;21.50;99.90;;;;;;4996318;28;20443;-87
2023/06/27 11:40:30;;;;;;;4.13;3.77;;;21.60;99.90;;;;;;4985462;28;20450;-89
2023/06/27 11:43:18;;;;;;;4.17;3.87;;;21.60;99.90;;;;;;4993279;28;20639;-87
2023/06/27 11:45:47;;;;;;;5.00;3.83;;;21.50;99.90;;;;;;4984043;28;20758;-86
2023/06/27 11:48:14;;;;;;;5.13;3.80;;;22.00;99.90;;;;;;4995195;28;21046;-85
2023/06/27 11:50:58;;;;;;;6.20;4.30;;;22.60;99.90;;;;;;4985988;28;20481;-87
2023/06/27 11:53:29;;;;;;;3.90;3.60;;;23.00;99.90;;;;;;4989080;28;20643;-82
2023/06/27 11:55:57;;;;;;;3.83;3.57;;;23.00;99.90;;;;;;4987278;28;20482;-85
2023/06/27 11:58:38;;;;;;;4.33;3.93;;;22.70;99.90;;;;;;4983364;28;20423;-85
2023/06/27 12:01:18;;;;;;;3.90;3.57;;;22.50;99.90;;;;;;4987457;28;20462;-82
2023/06/27 12:03:50;;;;;;;4.30;3.90;;;22.40;99.90;;;;;;5001049;28;20649;-86
2023/06/27 12:06:32;;;;;;;4.57;4.17;;;22.20;99.90;;;;;;4990731;28;20790;-85
2023/06/27 12:09:07;;;;;;;4.03;3.83;;;22.30;99.90;;;;;;4979755;28;20446;-83
2023/06/27 12:11:37;;;;;;;4.50;4.10;;;22.50;99.90;;;;;;4991922;28;20452;-87
2023/06/27 12:14:05;;;;;;;4.90;4.37;;;22.90;99.90;;;;;;4996189;28;20433;-83
2023/06/27 12:16:33;;;;;;;4.70;4.30;;;23.00;99.90;;;;;;4991790;28;20423;-86
2023/06/27 12:19:10;;;;;;;5.70;3.90;;;22.90;99.90;;;;;;4993585;28;20454;-89
2023/06/27 12:21:43;;;;;;;3.70;3.40;;;23.20;99.90;;;;;;4995042;28;20563;-85
2023/06/27 12:24:11;;;;;;;5.67;3.83;;;23.20;99.90;;;;;;4988467;28;20427;-85
2023/06/27 12:26:39;;;;;;;3.60;3.30;;;22.30;99.90;;;;;;4998326;28;20505;-85
2023/06/27 12:29:10;;;;;;;4.17;3.77;;;21.70;99.90;;;;;;4984384;28;20459;-84
2023/06/27 12:31:41;;;;;;;4.30;3.70;;;21.10;99.90;;;;;;4982712;28;20452;-88
2023/06/27 12:34:08;;;;;;;4.53;3.33;;;20.90;99.90;;;;;;4989331;28;20426;-84
2023/06/27 12:36:36;;;;;;;3.40;3.20;;;20.70;99.90;;;;;;4992218;28;20460;-84
2023/06/27 12:39:04;;;;;;;3.70;3.40;;;20.50;99.90;;;;;;4984402;28;20457;-84
2023/06/27 12:41:31;;;;;;;3.40;3.20;;;20.50;99.90;;;;;;4981420;28;20506;-83
2023/06/27 12:43:58;;;;;;;3.27;3.00;;;20.30;99.90;;;;;;4985278;28;20414;-83
2023/06/27 12:46:26;;;;;;;3.43;3.10;;;20.20;99.90;;;;;;4991978;28;20414;-86
2023/06/27 12:48:53;;;;;;;11.03;3.60;;;20.40;99.90;;;;;;4997928;28;20761;-87
2023/06/27 12:51:21;;;;;;;3.33;3.03;;;21.20;99.90;;;;;;4987839;28;20489;-87
2023/06/27 12:53:50;;;;;;;2.93;2.70;;;21.80;99.90;;;;;;4981155;28;20447;-86
2023/06/27 12:56:17;;;;;;;3.30;3.00;;;22.40;99.90;;;;;;4987033;28;20422;-87
2023/06/27 12:58:53;;;;;;;3.67;3.30;;;22.80;99.90;;;;;;4994777;28;20450;-87
2023/06/27 13:01:23;;;;;;;3.60;3.30;;;22.80;99.90;;;;;;4995917;28;20461;-85
2023/06/27 13:03:52;;;;;;;3.80;3.50;;;22.40;99.90;;;;;;4994087;28;20467;-86
2023/06/27 13:06:19;;;;;;;3.57;3.27;;;22.10;99.90;;;;;;5000421;28;20568;-84